Aviation Digital Data Service (ADDS)

Output produced by METARs form (0321 UTC 06 May 2015)
found at http://www.aviationweather.gov/adds/metars/
 
KAOO 060253Z AUTO 30003KT 10SM FEW080 19/13 A3026 RMK AO2 SLP241 T01940128 51011
KAOO 060153Z AUTO 00000KT 10SM SCT120 20/13 A3026 RMK AO2 SLP240 T02000128
KAOO 060053Z AUTO 32003KT 10SM FEW075 BKN120 21/13 A3024 RMK AO2 SLP235 T02060128
KAOO 052353Z AUTO 31004KT 10SM FEW075 FEW110 22/13 A3023 RMK AO2 SLP228 T02170128 10239 20194 55001
KAOO 052253Z AUTO 29006KT 10SM FEW095 22/12 A3022 RMK AO2 SLP226 T02220122
KAOO 052153Z AUTO 29006KT 10SM FEW047 SCT110 23/13 A3022 RMK AO2 SLP225 T02330128
KAOO 052053Z AUTO 29005KT 10SM SCT047 SCT100 OVC110 23/14 A3023 RMK AO2 SLP230 T02280139 58018
KAOO 051953Z AUTO 31004KT 10SM FEW047 BKN060 BKN100 22/14 A3025 RMK AO2 SLP236 T02170144
KAOO 051853Z AUTO 00000KT 10SM SCT060 SCT100 22/15 A3027 RMK AO2 SLP244 T02170150
KAOO 051753Z AUTO 00000KT 7SM BKN110 20/16 A3029 RMK AO2 SLP250 60006 T02000156 10200 20172 58010
KAOO 051653Z AUTO 00000KT 5SM HZ OVC100 18/15 A3031 RMK AO2 RAE24 SLP257 P0001 T01780150
KAOO 051553Z AUTO 29003KT 4SM -RA BR OVC095 17/15 A3032 RMK AO2 SLP263 P0004 T01720150
KAOO 051538Z AUTO 29004KT 4SM -RA BR FEW028 OVC090 17/15 A3032 RMK AO2 P0003 T01720150
KAOO 051529Z AUTO 33003KT 2 1/2SM RA BR FEW028 SCT065 OVC085 17/15 A3032 RMK AO2 P0003 T01720150
KAOO 051453Z AUTO 28004KT 5SM -RA FEW038 BKN060 OVC075 19/14 A3032 RMK AO2 RAE1354B39 SLP261 P0001 60001 T01890139 53006
KAOO 051353Z AUTO 00000KT 10SM -RA FEW021 SCT060 BKN075 19/13 A3030 RMK AO2 RAB45 SLP255 P0000 T01940133
KAOO 051253Z AUTO 31003KT 9SM BKN090 BKN120 19/13 A3030 RMK AO2 SLP252 T01940133
KAOO 051153Z AUTO 00000KT 8SM CLR 19/13 A3028 RMK AO2 SLP246 T01940133 10194 20156 53015
KAOO 051053Z AUTO 00000KT 7SM CLR 16/12 A3026 RMK AO2 SLP241 T01560122
KAOO 050953Z AUTO 00000KT 10SM FEW040 SCT047 BKN110 17/12 A3025 RMK AO2 SLP235 T01720122
KAOO 050853Z AUTO 00000KT 10SM FEW034 BKN046 BKN100 16/12 A3024 RMK AO2 SLP230 T01560117 53000
KAOO 050753Z AUTO 00000KT 10SM SCT050 BKN095 OVC110 17/12 A3023 RMK AO2 SLP227 T01720117
KAOO 050653Z AUTO 00000KT 10SM OVC100 18/12 A3023 RMK AO2 SLP228 T01830117
KAOO 050553Z AUTO 27004KT 10SM OVC100 19/12 A3024 RMK AO2 SLP229 T01890117 10233 20172 51014
KAOO 050453Z AUTO 29003KT 10SM OVC100 19/11 A3023 RMK AO2 SLP227 T01940111 402780078
KAOO 050353Z AUTO 32010KT 10SM OVC110 21/11 A3022 RMK AO2 SLP223 T02060106
KAOO 050253Z AUTO 19005KT 10SM FEW090 18/09 A3019 RMK AO2 SLP215 T01780089 51010
KAOO 050153Z AUTO 20005KT 10SM FEW100 20/07 A3019 RMK AO2 SLP216 T02000072
KAOO 050053Z AUTO 24005KT 10SM SCT100 23/07 A3018 RMK AO2 SLP210 T02280067
KAOO 042353Z AUTO 28006KT 10SM SCT100 23/07 A3016 RMK AO2 SLP208 T02330072 10278 20233 53006
KAOO 042253Z AUTO 27006KT 10SM BKN100 25/07 A3015 RMK AO2 SLP207 T02500067
KAOO 042153Z AUTO 24010KT 10SM BKN095 26/07 A3015 RMK AO2 SLP204 T02610067
KAOO 042053Z AUTO 24012G21KT 10SM BKN090 27/06 A3015 RMK AO2 SLP202 T02720056 56013
KAOO 041953Z AUTO 24007G17KT 10SM BKN095 27/06 A3016 RMK AO2 SLP205 T02720061
KAOO 041853Z AUTO 23010KT 10SM BKN090 27/05 A3017 RMK AO2 SLP210 T02720050
KAOO 041753Z AUTO 23012KT 10SM BKN090 27/04 A3018 RMK AO2 SLP215 T02670044 10272 20133 58011
KAOO 041653Z AUTO 19011KT 10SM CLR 26/06 A3019 RMK AO2 SLP217 T02560061
KAOO 041553Z AUTO 20011G17KT 10SM CLR 26/04 A3021 RMK AO2 SLP225 T02560039